Jordan, Montana
Current Conditions -  °F | °C
As of 1:53 AM on Wednesday 28 Jan 2015 (Local Time) from KGGW Reporting Station
Clear Clear  
Wind Chill: 28°   Ceiling: Unl
Heat Index: 33°   Visibility: 10mi
Dew Point: 30°   Wind: 6mph
Humidity: 89%   Direction: 250°WSW
Pressure: 29.76"   Gusts: NA
Location:  47.32°N, 106.91°W
Report Text: KGGW 280853Z AUTO 25005KT 10SM CLR 01/M01 A2976 RMK AO2 SLP093 T00061011 56002
Loading
Personal Weather Stations






























Interactive Weather Map New forecast layout! Learn more

10-Day Weather Forecast

Advertisements
Track Severe Weather on mobile